Terminal Aerodrome Forecast
Issued by NWS Green Bay, WI

Home | Current Version | Previous Version | Graphics & Text | Print | Product List | Glossary On
Versions: 1 2 3 4 5 6 7 8 9 10 11 12 13 14 15 16 17 18 19 20 21 22 23 24 25 26 27 28 29 30 31 32
615
FTUS43 KGRB 232336
TAFGRB
TAF
KGRB 232336Z 2400/2424 19009KT P6SM SCT040 BKN200
     FM240600 19008KT P6SM VCSH BKN035 OVC150
      TEMPO 2408/2410 5SM -TSRA BR BKN015 OVC035CB
     FM241000 19008KT 2SM TSRA BR BKN008 OVC015CB
     FM241400 20010G17KT 5SM HZ VCSH BKN008 OVC015
     FM241800 22010G17KT 6SM HZ SCT015 BKN035
      TEMPO 2418/2420 BKN015=

USA.gov is the U.S. government's official web portal to all federal, state and local government web resources and services.